sensor_id;sensor_type;location;lat;lon;timestamp;P1;durP1;ratioP1;P2;durP2;ratioP2
34184;SDS011;20454;48.100;11.776;2022-07-23T00:01:32;5.13;;;4.72;;
34184;SDS011;20454;48.100;11.776;2022-07-23T00:03:58;4.38;;;4.07;;
34184;SDS011;20454;48.100;11.776;2022-07-23T00:06:25;5.28;;;4.47;;
34184;SDS011;20454;48.100;11.776;2022-07-23T00:08:51;4.50;;;4.18;;
34184;SDS011;20454;48.100;11.776;2022-07-23T00:11:17;4.10;;;3.80;;
34184;SDS011;20454;48.100;11.776;2022-07-23T00:13:43;4.45;;;4.15;;
34184;SDS011;20454;48.100;11.776;2022-07-23T00:16:10;5.85;;;5.25;;
34184;SDS011;20454;48.100;11.776;2022-07-23T00:18:35;4.25;;;3.95;;
34184;SDS011;20454;48.100;11.776;2022-07-23T00:21:01;4.30;;;3.80;;
34184;SDS011;20454;48.100;11.776;2022-07-23T00:23:27;4.55;;;4.18;;
34184;SDS011;20454;48.100;11.776;2022-07-23T00:25:54;5.00;;;4.50;;
34184;SDS011;20454;48.100;11.776;2022-07-23T00:28:20;5.18;;;3.80;;
34184;SDS011;20454;48.100;11.776;2022-07-23T00:30:46;5.25;;;4.60;;
34184;SDS011;20454;48.100;11.776;2022-07-23T00:33:12;4.97;;;4.57;;
34184;SDS011;20454;48.100;11.776;2022-07-23T00:35:38;5.20;;;4.70;;
34184;SDS011;20454;48.100;11.776;2022-07-23T00:38:06;5.00;;;4.65;;
34184;SDS011;20454;48.100;11.776;2022-07-23T00:40:36;4.97;;;4.55;;
34184;SDS011;20454;48.100;11.776;2022-07-23T00:43:03;4.93;;;4.50;;
34184;SDS011;20454;48.100;11.776;2022-07-23T00:45:29;4.38;;;4.07;;
34184;SDS011;20454;48.100;11.776;2022-07-23T00:47:56;5.00;;;4.70;;
34184;SDS011;20454;48.100;11.776;2022-07-23T00:50:22;5.30;;;4.88;;
34184;SDS011;20454;48.100;11.776;2022-07-23T00:52:48;5.43;;;4.43;;
34184;SDS011;20454;48.100;11.776;2022-07-23T00:55:14;5.07;;;4.72;;
34184;SDS011;20454;48.100;11.776;2022-07-23T00:57:40;4.72;;;4.43;;
34184;SDS011;20454;48.100;11.776;2022-07-23T01:00:08;5.63;;;5.28;;
34184;SDS011;20454;48.100;11.776;2022-07-23T01:02:37;4.90;;;4.22;;
34184;SDS011;20454;48.100;11.776;2022-07-23T01:05:03;5.07;;;4.55;;
34184;SDS011;20454;48.100;11.776;2022-07-23T01:07:30;4.00;;;3.70;;
34184;SDS011;20454;48.100;11.776;2022-07-23T01:09:56;4.53;;;4.22;;
34184;SDS011;20454;48.100;11.776;2022-07-23T01:12:22;5.22;;;4.82;;
34184;SDS011;20454;48.100;11.776;2022-07-23T01:14:53;4.43;;;4.13;;
34184;SDS011;20454;48.100;11.776;2022-07-23T01:17:23;5.15;;;4.57;;
34184;SDS011;20454;48.100;11.776;2022-07-23T01:19:49;4.93;;;4.57;;
34184;SDS011;20454;48.100;11.776;2022-07-23T01:22:15;4.78;;;4.38;;
34184;SDS011;20454;48.100;11.776;2022-07-23T01:24:44;5.68;;;5.18;;
34184;SDS011;20454;48.100;11.776;2022-07-23T01:27:10;6.18;;;5.68;;
34184;SDS011;20454;48.100;11.776;2022-07-23T01:29:37;10.05;;;5.45;;
34184;SDS011;20454;48.100;11.776;2022-07-23T01:32:04;7.60;;;6.00;;
34184;SDS011;20454;48.100;11.776;2022-07-23T01:34:30;11.13;;;6.47;;
34184;SDS011;20454;48.100;11.776;2022-07-23T01:36:56;8.20;;;7.50;;
34184;SDS011;20454;48.100;11.776;2022-07-23T01:39:22;9.45;;;6.70;;
34184;SDS011;20454;48.100;11.776;2022-07-23T01:41:48;6.20;;;5.65;;
34184;SDS011;20454;48.100;11.776;2022-07-23T01:44:14;6.65;;;6.05;;
34184;SDS011;20454;48.100;11.776;2022-07-23T01:46:40;7.20;;;5.32;;
34184;SDS011;20454;48.100;11.776;2022-07-23T01:49:06;6.32;;;5.63;;
34184;SDS011;20454;48.100;11.776;2022-07-23T01:51:31;5.03;;;4.55;;
34184;SDS011;20454;48.100;11.776;2022-07-23T01:53:57;5.72;;;5.20;;
34184;SDS011;20454;48.100;11.776;2022-07-23T01:56:23;6.20;;;4.03;;
34184;SDS011;20454;48.100;11.776;2022-07-23T01:58:49;2.97;;;2.75;;
34184;SDS011;20454;48.100;11.776;2022-07-23T07:01:52;5.18;;;4.85;;
34184;SDS011;20454;48.100;11.776;2022-07-23T07:04:18;5.78;;;5.22;;
34184;SDS011;20454;48.100;11.776;2022-07-23T07:06:43;4.95;;;4.55;;
34184;SDS011;20454;48.100;11.776;2022-07-23T07:09:09;4.43;;;4.05;;
34184;SDS011;20454;48.100;11.776;2022-07-23T07:11:35;4.88;;;4.47;;
34184;SDS011;20454;48.100;11.776;2022-07-23T07:14:01;5.13;;;4.55;;
34184;SDS011;20454;48.100;11.776;2022-07-23T07:16:27;7.18;;;4.85;;
34184;SDS011;20454;48.100;11.776;2022-07-23T07:18:52;4.68;;;4.38;;
34184;SDS011;20454;48.100;11.776;2022-07-23T07:21:18;4.63;;;4.28;;
34184;SDS011;20454;48.100;11.776;2022-07-23T07:23:44;5.60;;;5.07;;
34184;SDS011;20454;48.100;11.776;2022-07-23T07:26:10;5.45;;;5.03;;
34184;SDS011;20454;48.100;11.776;2022-07-23T07:28:35;5.63;;;5.13;;
34184;SDS011;20454;48.100;11.776;2022-07-23T07:31:01;5.20;;;4.90;;
34184;SDS011;20454;48.100;11.776;2022-07-23T07:33:27;5.63;;;5.22;;
34184;SDS011;20454;48.100;11.776;2022-07-23T07:54:02;5.90;;;5.40;;
34184;SDS011;20454;48.100;11.776;2022-07-23T07:56:28;4.88;;;4.57;;
34184;SDS011;20454;48.100;11.776;2022-07-23T07:58:53;4.65;;;4.28;;
34184;SDS011;20454;48.100;11.776;2022-07-23T08:01:19;4.95;;;4.55;;
34184;SDS011;20454;48.100;11.776;2022-07-23T08:03:45;5.60;;;5.18;;
34184;SDS011;20454;48.100;11.776;2022-07-23T08:06:12;7.28;;;5.18;;
34184;SDS011;20454;48.100;11.776;2022-07-23T08:08:37;5.82;;;5.25;;
34184;SDS011;20454;48.100;11.776;2022-07-23T08:11:03;5.72;;;5.22;;
34184;SDS011;20454;48.100;11.776;2022-07-23T08:13:29;6.03;;;5.47;;
34184;SDS011;20454;48.100;11.776;2022-07-23T08:15:55;5.80;;;5.40;;
34184;SDS011;20454;48.100;11.776;2022-07-23T08:18:21;5.78;;;5.38;;
34184;SDS011;20454;48.100;11.776;2022-07-23T08:20:46;5.28;;;4.88;;
34184;SDS011;20454;48.100;11.776;2022-07-23T08:23:12;5.47;;;4.97;;
34184;SDS011;20454;48.100;11.776;2022-07-23T08:25:39;6.85;;;6.25;;
34184;SDS011;20454;48.100;11.776;2022-07-23T08:28:07;6.65;;;6.10;;
34184;SDS011;20454;48.100;11.776;2022-07-23T08:30:36;6.40;;;5.80;;
34184;SDS011;20454;48.100;11.776;2022-07-23T08:33:04;5.78;;;5.28;;
34184;SDS011;20454;48.100;11.776;2022-07-23T08:35:45;5.53;;;5.05;;
34184;SDS011;20454;48.100;11.776;2022-07-23T08:38:14;5.35;;;5.05;;
34184;SDS011;20454;48.100;11.776;2022-07-23T08:40:44;6.30;;;5.80;;
34184;SDS011;20454;48.100;11.776;2022-07-23T08:43:13;5.93;;;5.53;;
34184;SDS011;20454;48.100;11.776;2022-07-23T08:45:45;9.00;;;5.65;;
34184;SDS011;20454;48.100;11.776;2022-07-23T08:48:31;6.07;;;5.68;;
34184;SDS011;20454;48.100;11.776;2022-07-23T08:51:00;6.28;;;5.72;;
34184;SDS011;20454;48.100;11.776;2022-07-23T08:53:28;5.82;;;5.10;;
34184;SDS011;20454;48.100;11.776;2022-07-23T08:55:56;5.72;;;5.20;;
34184;SDS011;20454;48.100;11.776;2022-07-23T08:58:24;5.63;;;5.25;;
34184;SDS011;20454;48.100;11.776;2022-07-23T09:00:51;5.53;;;5.13;;
34184;SDS011;20454;48.100;11.776;2022-07-23T09:03:18;6.20;;;5.47;;
34184;SDS011;20454;48.100;11.776;2022-07-23T09:05:53;5.82;;;5.45;;
34184;SDS011;20454;48.100;11.776;2022-07-23T09:08:22;6.28;;;5.70;;
34184;SDS011;20454;48.100;11.776;2022-07-23T09:11:02;7.72;;;5.47;;
34184;SDS011;20454;48.100;11.776;2022-07-23T09:26:40;5.70;;;4.07;;
34184;SDS011;20454;48.100;11.776;2022-07-23T09:29:12;4.68;;;4.38;;
34184;SDS011;20454;48.100;11.776;2022-07-23T09:31:43;8.52;;;4.82;;
34184;SDS011;20454;48.100;11.776;2022-07-23T09:34:24;4.80;;;4.47;;
34184;SDS011;20454;48.100;11.776;2022-07-23T09:36:53;7.30;;;5.18;;
34184;SDS011;20454;48.100;11.776;2022-07-23T09:39:33;4.47;;;4.18;;
34184;SDS011;20454;48.100;11.776;2022-07-23T09:42:12;5.05;;;4.75;;
34184;SDS011;20454;48.100;11.776;2022-07-23T09:44:48;5.07;;;4.68;;
34184;SDS011;20454;48.100;11.776;2022-07-23T09:47:19;4.75;;;4.45;;
34184;SDS011;20454;48.100;11.776;2022-07-23T09:50:06;5.35;;;5.05;;
34184;SDS011;20454;48.100;11.776;2022-07-23T09:52:43;4.90;;;4.57;;
34184;SDS011;20454;48.100;11.776;2022-07-23T09:55:14;5.05;;;4.65;;
34184;SDS011;20454;48.100;11.776;2022-07-23T09:57:42;5.22;;;4.65;;
34184;SDS011;20454;48.100;11.776;2022-07-23T10:00:16;5.88;;;4.55;;
34184;SDS011;20454;48.100;11.776;2022-07-23T10:02:42;4.72;;;4.43;;
34184;SDS011;20454;48.100;11.776;2022-07-23T10:05:11;4.60;;;4.25;;
34184;SDS011;20454;48.100;11.776;2022-07-23T10:07:37;5.22;;;4.75;;
34184;SDS011;20454;48.100;11.776;2022-07-23T10:10:05;7.03;;;4.05;;
34184;SDS011;20454;48.100;11.776;2022-07-23T10:12:31;5.32;;;4.82;;
34184;SDS011;20454;48.100;11.776;2022-07-23T10:15:00;4.68;;;4.28;;
34184;SDS011;20454;48.100;11.776;2022-07-23T10:17:30;4.38;;;3.80;;
34184;SDS011;20454;48.100;11.776;2022-07-23T10:19:56;4.82;;;4.53;;
34184;SDS011;20454;48.100;11.776;2022-07-23T10:22:23;5.05;;;4.15;;
34184;SDS011;20454;48.100;11.776;2022-07-23T10:25:05;3.88;;;3.58;;
34184;SDS011;20454;48.100;11.776;2022-07-23T10:30:33;4.25;;;3.92;;
34184;SDS011;20454;48.100;11.776;2022-07-23T10:36:18;4.45;;;4.13;;
34184;SDS011;20454;48.100;11.776;2022-07-23T10:39:13;5.97;;;4.43;;
34184;SDS011;20454;48.100;11.776;2022-07-23T10:41:48;4.22;;;3.90;;
34184;SDS011;20454;48.100;11.776;2022-07-23T10:44:16;4.22;;;3.83;;
34184;SDS011;20454;48.100;11.776;2022-07-23T10:49:40;4.85;;;3.55;;
34184;SDS011;20454;48.100;11.776;2022-07-23T10:52:15;4.93;;;3.40;;
34184;SDS011;20454;48.100;11.776;2022-07-23T10:57:46;3.75;;;3.45;;
34184;SDS011;20454;48.100;11.776;2022-07-23T11:00:17;3.88;;;3.58;;
34184;SDS011;20454;48.100;11.776;2022-07-23T11:02:49;4.17;;;3.73;;
34184;SDS011;20454;48.100;11.776;2022-07-23T11:08:16;6.88;;;4.60;;
34184;SDS011;20454;48.100;11.776;2022-07-23T11:31:57;4.20;;;3.72;;
34184;SDS011;20454;48.100;11.776;2022-07-23T11:34:31;4.50;;;4.10;;
34184;SDS011;20454;48.100;11.776;2022-07-23T11:37:02;3.75;;;3.40;;
34184;SDS011;20454;48.100;11.776;2022-07-23T11:39:31;3.78;;;3.50;;
34184;SDS011;20454;48.100;11.776;2022-07-23T11:41:58;4.78;;;3.78;;
34184;SDS011;20454;48.100;11.776;2022-07-23T11:44:26;4.97;;;4.35;;
34184;SDS011;20454;48.100;11.776;2022-07-23T11:46:56;3.92;;;3.63;;
34184;SDS011;20454;48.100;11.776;2022-07-23T11:57:18;4.63;;;4.22;;
34184;SDS011;20454;48.100;11.776;2022-07-23T11:59:50;4.28;;;3.83;;
34184;SDS011;20454;48.100;11.776;2022-07-23T12:02:21;3.90;;;3.63;;
34184;SDS011;20454;48.100;11.776;2022-07-23T12:04:48;8.50;;;4.70;;
34184;SDS011;20454;48.100;11.776;2022-07-23T12:10:04;4.70;;;4.30;;
34184;SDS011;20454;48.100;11.776;2022-07-23T12:12:44;5.13;;;4.63;;
34184;SDS011;20454;48.100;11.776;2022-07-23T12:15:14;4.88;;;4.47;;
34184;SDS011;20454;48.100;11.776;2022-07-23T12:17:44;4.35;;;4.00;;
34184;SDS011;20454;48.100;11.776;2022-07-23T12:20:13;5.28;;;4.82;;
34184;SDS011;20454;48.100;11.776;2022-07-23T12:22:48;5.28;;;3.88;;
34184;SDS011;20454;48.100;11.776;2022-07-23T12:25:18;5.07;;;4.57;;
34184;SDS011;20454;48.100;11.776;2022-07-23T12:27:46;4.90;;;4.28;;
34184;SDS011;20454;48.100;11.776;2022-07-23T12:33:04;4.50;;;4.03;;
34184;SDS011;20454;48.100;11.776;2022-07-23T12:35:34;5.32;;;4.93;;
34184;SDS011;20454;48.100;11.776;2022-07-23T12:38:07;4.70;;;4.30;;
34184;SDS011;20454;48.100;11.776;2022-07-23T12:40:44;5.22;;;4.78;;
34184;SDS011;20454;48.100;11.776;2022-07-23T12:48:33;5.50;;;4.65;;
34184;SDS011;20454;48.100;11.776;2022-07-23T12:51:14;4.45;;;4.07;;
34184;SDS011;20454;48.100;11.776;2022-07-23T12:53:46;5.15;;;4.68;;
34184;SDS011;20454;48.100;11.776;2022-07-23T12:58:56;4.45;;;4.15;;
34184;SDS011;20454;48.100;11.776;2022-07-23T13:01:30;5.55;;;4.75;;
34184;SDS011;20454;48.100;11.776;2022-07-23T13:04:10;5.25;;;4.85;;
34184;SDS011;20454;48.100;11.776;2022-07-23T13:06:42;5.55;;;4.60;;
34184;SDS011;20454;48.100;11.776;2022-07-23T13:09:13;5.35;;;4.85;;
34184;SDS011;20454;48.100;11.776;2022-07-23T13:11:42;4.95;;;4.65;;
34184;SDS011;20454;48.100;11.776;2022-07-23T13:14:11;4.95;;;4.45;;
34184;SDS011;20454;48.100;11.776;2022-07-23T13:16:38;4.93;;;4.53;;
34184;SDS011;20454;48.100;11.776;2022-07-23T13:19:05;5.13;;;4.60;;
34184;SDS011;20454;48.100;11.776;2022-07-23T13:21:31;4.03;;;3.72;;
34184;SDS011;20454;48.100;11.776;2022-07-23T13:23:57;5.05;;;4.47;;
34184;SDS011;20454;48.100;11.776;2022-07-23T13:26:24;4.50;;;4.20;;
34184;SDS011;20454;48.100;11.776;2022-07-23T13:28:51;5.95;;;5.28;;
34184;SDS011;20454;48.100;11.776;2022-07-23T13:31:17;4.95;;;4.55;;
34184;SDS011;20454;48.100;11.776;2022-07-23T13:33:43;4.88;;;4.47;;
34184;SDS011;20454;48.100;11.776;2022-07-23T13:36:09;4.85;;;4.45;;
34184;SDS011;20454;48.100;11.776;2022-07-23T13:38:35;4.47;;;4.10;;
34184;SDS011;20454;48.100;11.776;2022-07-23T13:41:01;6.88;;;4.45;;
34184;SDS011;20454;48.100;11.776;2022-07-23T13:43:28;5.30;;;4.82;;
34184;SDS011;20454;48.100;11.776;2022-07-23T13:45:54;5.28;;;4.88;;
34184;SDS011;20454;48.100;11.776;2022-07-23T13:48:21;5.05;;;4.65;;
34184;SDS011;20454;48.100;11.776;2022-07-23T13:50:47;4.90;;;4.60;;
34184;SDS011;20454;48.100;11.776;2022-07-23T13:53:16;4.68;;;4.38;;
34184;SDS011;20454;48.100;11.776;2022-07-23T13:55:44;5.15;;;4.65;;
34184;SDS011;20454;48.100;11.776;2022-07-23T13:58:11;5.65;;;5.13;;
34184;SDS011;20454;48.100;11.776;2022-07-23T14:00:39;4.13;;;3.83;;
34184;SDS011;20454;48.100;11.776;2022-07-23T14:03:08;5.93;;;4.50;;
34184;SDS011;20454;48.100;11.776;2022-07-23T14:05:34;7.72;;;4.65;;
34184;SDS011;20454;48.100;11.776;2022-07-23T14:08:00;4.75;;;4.35;;
34184;SDS011;20454;48.100;11.776;2022-07-23T14:10:27;5.60;;;4.50;;
34184;SDS011;20454;48.100;11.776;2022-07-23T14:12:53;4.90;;;4.25;;
34184;SDS011;20454;48.100;11.776;2022-07-23T14:15:21;4.28;;;3.97;;
34184;SDS011;20454;48.100;11.776;2022-07-23T14:17:49;4.40;;;4.10;;
34184;SDS011;20454;48.100;11.776;2022-07-23T14:20:15;4.13;;;3.88;;
34184;SDS011;20454;48.100;11.776;2022-07-23T14:22:41;4.45;;;4.15;;
34184;SDS011;20454;48.100;11.776;2022-07-23T14:25:08;5.00;;;4.60;;
34184;SDS011;20454;48.100;11.776;2022-07-23T14:27:35;7.25;;;4.35;;
34184;SDS011;20454;48.100;11.776;2022-07-23T14:30:02;7.55;;;4.18;;
34184;SDS011;20454;48.100;11.776;2022-07-23T14:32:33;5.85;;;3.97;;
34184;SDS011;20454;48.100;11.776;2022-07-23T17:10:28;6.28;;;5.78;;
34184;SDS011;20454;48.100;11.776;2022-07-23T17:12:54;6.53;;;6.03;;
34184;SDS011;20454;48.100;11.776;2022-07-23T17:15:22;9.52;;;6.68;;
34184;SDS011;20454;48.100;11.776;2022-07-23T17:17:48;7.35;;;6.65;;
34184;SDS011;20454;48.100;11.776;2022-07-23T17:20:14;7.50;;;6.95;;
34184;SDS011;20454;48.100;11.776;2022-07-23T17:22:40;8.23;;;7.55;;
34184;SDS011;20454;48.100;11.776;2022-07-23T17:25:07;7.75;;;6.90;;
34184;SDS011;20454;48.100;11.776;2022-07-23T17:27:36;6.60;;;6.20;;
34184;SDS011;20454;48.100;11.776;2022-07-23T17:30:03;7.22;;;6.72;;
34184;SDS011;20454;48.100;11.776;2022-07-23T17:32:30;7.25;;;6.65;;
34184;SDS011;20454;48.100;11.776;2022-07-23T17:34:55;7.78;;;7.28;;
34184;SDS011;20454;48.100;11.776;2022-07-23T17:37:21;9.07;;;7.30;;
34184;SDS011;20454;48.100;11.776;2022-07-23T17:39:47;6.85;;;6.32;;
34184;SDS011;20454;48.100;11.776;2022-07-23T17:42:13;7.55;;;6.95;;
34184;SDS011;20454;48.100;11.776;2022-07-23T17:44:39;6.57;;;6.18;;
34184;SDS011;20454;48.100;11.776;2022-07-23T17:47:04;7.32;;;6.78;;
34184;SDS011;20454;48.100;11.776;2022-07-23T17:49:30;7.97;;;7.28;;
34184;SDS011;20454;48.100;11.776;2022-07-23T17:51:58;8.02;;;7.47;;
34184;SDS011;20454;48.100;11.776;2022-07-23T17:54:25;6.78;;;6.22;;
34184;SDS011;20454;48.100;11.776;2022-07-23T17:56:51;8.00;;;7.25;;
34184;SDS011;20454;48.100;11.776;2022-07-23T17:59:18;8.35;;;7.65;;
34184;SDS011;20454;48.100;11.776;2022-07-23T18:01:44;7.55;;;7.10;;
34184;SDS011;20454;48.100;11.776;2022-07-23T18:04:09;8.27;;;7.63;;
34184;SDS011;20454;48.100;11.776;2022-07-23T18:06:38;7.70;;;7.20;;
34184;SDS011;20454;48.100;11.776;2022-07-23T18:09:06;7.50;;;6.90;;
34184;SDS011;20454;48.100;11.776;2022-07-23T18:11:36;7.53;;;6.93;;
34184;SDS011;20454;48.100;11.776;2022-07-23T18:14:04;6.38;;;5.97;;
34184;SDS011;20454;48.100;11.776;2022-07-23T18:16:31;8.55;;;7.75;;
34184;SDS011;20454;48.100;11.776;2022-07-23T18:18:57;9.07;;;8.27;;
34184;SDS011;20454;48.100;11.776;2022-07-23T18:21:23;7.78;;;7.07;;
34184;SDS011;20454;48.100;11.776;2022-07-23T18:23:49;8.43;;;7.78;;
34184;SDS011;20454;48.100;11.776;2022-07-23T18:26:16;8.05;;;7.55;;
34184;SDS011;20454;48.100;11.776;2022-07-23T18:28:41;7.60;;;7.10;;
34184;SDS011;20454;48.100;11.776;2022-07-23T18:31:07;8.18;;;7.47;;
34184;SDS011;20454;48.100;11.776;2022-07-23T18:33:33;8.00;;;7.32;;
34184;SDS011;20454;48.100;11.776;2022-07-23T18:35:59;8.32;;;7.72;;
34184;SDS011;20454;48.100;11.776;2022-07-23T18:38:25;7.13;;;6.53;;
34184;SDS011;20454;48.100;11.776;2022-07-23T19:37:52;8.07;;;7.47;;
34184;SDS011;20454;48.100;11.776;2022-07-23T19:40:17;9.35;;;8.38;;
34184;SDS011;20454;48.100;11.776;2022-07-23T19:42:43;9.10;;;8.27;;
34184;SDS011;20454;48.100;11.776;2022-07-23T19:45:09;8.18;;;7.57;;
34184;SDS011;20454;48.100;11.776;2022-07-23T19:47:35;8.48;;;7.80;;
34184;SDS011;20454;48.100;11.776;2022-07-23T19:50:01;8.25;;;7.47;;
34184;SDS011;20454;48.100;11.776;2022-07-23T19:52:28;9.02;;;8.30;;
34184;SDS011;20454;48.100;11.776;2022-07-23T19:54:54;7.68;;;7.13;;
34184;SDS011;20454;48.100;11.776;2022-07-23T19:57:20;9.32;;;8.63;;
34184;SDS011;20454;48.100;11.776;2022-07-23T19:59:46;7.82;;;7.22;;
34184;SDS011;20454;48.100;11.776;2022-07-23T20:02:11;8.95;;;7.97;;
34184;SDS011;20454;48.100;11.776;2022-07-23T20:04:37;9.60;;;8.77;;
34184;SDS011;20454;48.100;11.776;2022-07-23T20:07:03;9.25;;;8.18;;
34184;SDS011;20454;48.100;11.776;2022-07-23T20:09:33;9.40;;;8.68;;
34184;SDS011;20454;48.100;11.776;2022-07-23T20:11:59;8.80;;;8.20;;
34184;SDS011;20454;48.100;11.776;2022-07-23T20:14:24;8.95;;;8.25;;
34184;SDS011;20454;48.100;11.776;2022-07-23T20:16:50;8.68;;;7.95;;
34184;SDS011;20454;48.100;11.776;2022-07-23T20:19:16;8.10;;;7.40;;
34184;SDS011;20454;48.100;11.776;2022-07-23T20:21:42;7.72;;;7.22;;
34184;SDS011;20454;48.100;11.776;2022-07-23T20:24:11;9.23;;;8.35;;
34184;SDS011;20454;48.100;11.776;2022-07-23T20:26:42;8.75;;;8.05;;
34184;SDS011;20454;48.100;11.776;2022-07-23T20:29:10;7.88;;;7.38;;
34184;SDS011;20454;48.100;11.776;2022-07-23T20:31:37;8.52;;;7.93;;
34184;SDS011;20454;48.100;11.776;2022-07-23T20:34:03;8.35;;;7.65;;
34184;SDS011;20454;48.100;11.776;2022-07-23T20:36:29;8.25;;;7.72;;
34184;SDS011;20454;48.100;11.776;2022-07-23T20:38:55;8.20;;;7.60;;
34184;SDS011;20454;48.100;11.776;2022-07-23T20:41:21;8.25;;;7.65;;
34184;SDS011;20454;48.100;11.776;2022-07-23T20:43:47;9.07;;;8.38;;
34184;SDS011;20454;48.100;11.776;2022-07-23T20:46:13;8.90;;;8.30;;
34184;SDS011;20454;48.100;11.776;2022-07-23T20:48:39;8.88;;;8.18;;
34184;SDS011;20454;48.100;11.776;2022-07-23T20:51:04;8.30;;;7.68;;
34184;SDS011;20454;48.100;11.776;2022-07-23T20:53:30;7.78;;;7.15;;
34184;SDS011;20454;48.100;11.776;2022-07-23T20:55:56;8.75;;;8.05;;
34184;SDS011;20454;48.100;11.776;2022-07-23T20:58:24;8.40;;;7.78;;
34184;SDS011;20454;48.100;11.776;2022-07-23T21:00:50;7.28;;;6.70;;
34184;SDS011;20454;48.100;11.776;2022-07-23T21:03:16;8.98;;;8.27;;
34184;SDS011;20454;48.100;11.776;2022-07-23T21:05:42;9.52;;;8.73;;
34184;SDS011;20454;48.100;11.776;2022-07-23T21:08:08;8.20;;;7.60;;
34184;SDS011;20454;48.100;11.776;2022-07-23T21:10:34;9.25;;;8.55;;
34184;SDS011;20454;48.100;11.776;2022-07-23T21:13:00;8.45;;;7.85;;
34184;SDS011;20454;48.100;11.776;2022-07-23T21:15:26;7.47;;;6.97;;
34184;SDS011;20454;48.100;11.776;2022-07-23T21:17:51;7.63;;;7.03;;
34184;SDS011;20454;48.100;11.776;2022-07-23T21:20:17;8.63;;;7.93;;
34184;SDS011;20454;48.100;11.776;2022-07-23T21:22:43;7.57;;;6.95;;
34184;SDS011;20454;48.100;11.776;2022-07-23T21:25:09;8.48;;;7.78;;
34184;SDS011;20454;48.100;11.776;2022-07-23T21:27:36;8.32;;;7.70;;
34184;SDS011;20454;48.100;11.776;2022-07-23T21:30:03;7.75;;;7.25;;
34184;SDS011;20454;48.100;11.776;2022-07-23T21:32:30;7.70;;;7.20;;
34184;SDS011;20454;48.100;11.776;2022-07-23T21:34:56;9.10;;;8.20;;
34184;SDS011;20454;48.100;11.776;2022-07-23T21:37:22;8.10;;;7.32;;
34184;SDS011;20454;48.100;11.776;2022-07-23T21:39:48;7.97;;;7.40;;
34184;SDS011;20454;48.100;11.776;2022-07-23T21:42:14;7.43;;;6.93;;
34184;SDS011;20454;48.100;11.776;2022-07-23T21:44:40;7.90;;;7.30;;
34184;SDS011;20454;48.100;11.776;2022-07-23T21:47:06;8.68;;;8.02;;
34184;SDS011;20454;48.100;11.776;2022-07-23T21:49:31;7.40;;;6.90;;
34184;SDS011;20454;48.100;11.776;2022-07-23T21:51:57;8.45;;;7.85;;
34184;SDS011;20454;48.100;11.776;2022-07-23T21:54:23;7.30;;;6.80;;
34184;SDS011;20454;48.100;11.776;2022-07-23T21:56:49;8.27;;;7.78;;
34184;SDS011;20454;48.100;11.776;2022-07-23T21:59:15;8.15;;;7.55;;
34184;SDS011;20454;48.100;11.776;2022-07-23T22:01:41;8.73;;;8.13;;
34184;SDS011;20454;48.100;11.776;2022-07-23T22:04:07;9.45;;;8.65;;
34184;SDS011;20454;48.100;11.776;2022-07-23T22:06:32;9.35;;;8.55;;
34184;SDS011;20454;48.100;11.776;2022-07-23T22:08:59;9.10;;;8.48;;
34184;SDS011;20454;48.100;11.776;2022-07-23T22:11:24;9.23;;;8.52;;
34184;SDS011;20454;48.100;11.776;2022-07-23T22:13:50;9.15;;;8.55;;
34184;SDS011;20454;48.100;11.776;2022-07-23T22:16:16;10.07;;;9.20;;
34184;SDS011;20454;48.100;11.776;2022-07-23T22:18:42;9.68;;;8.88;;
34184;SDS011;20454;48.100;11.776;2022-07-23T22:21:07;10.32;;;9.55;;
34184;SDS011;20454;48.100;11.776;2022-07-23T22:23:34;9.98;;;9.18;;
34184;SDS011;20454;48.100;11.776;2022-07-23T22:26:00;11.38;;;10.27;;
34184;SDS011;20454;48.100;11.776;2022-07-23T22:28:26;9.43;;;8.73;;
34184;SDS011;20454;48.100;11.776;2022-07-23T22:30:51;10.20;;;9.35;;
34184;SDS011;20454;48.100;11.776;2022-07-23T22:33:17;10.55;;;9.77;;
34184;SDS011;20454;48.100;11.776;2022-07-23T22:35:43;10.77;;;9.88;;
34184;SDS011;20454;48.100;11.776;2022-07-23T22:38:09;10.85;;;9.95;;
34184;SDS011;20454;48.100;11.776;2022-07-23T22:40:34;11.00;;;10.10;;
34184;SDS011;20454;48.100;11.776;2022-07-23T22:43:00;10.40;;;9.50;;
34184;SDS011;20454;48.100;11.776;2022-07-23T22:45:26;10.27;;;9.45;;
34184;SDS011;20454;48.100;11.776;2022-07-23T22:47:52;11.00;;;10.07;;
34184;SDS011;20454;48.100;11.776;2022-07-23T22:50:18;10.68;;;9.77;;
34184;SDS011;20454;48.100;11.776;2022-07-23T22:52:45;10.30;;;9.52;;
34184;SDS011;20454;48.100;11.776;2022-07-23T22:55:10;10.82;;;9.98;;
34184;SDS011;20454;48.100;11.776;2022-07-23T22:57:36;9.85;;;9.07;;
34184;SDS011;20454;48.100;11.776;2022-07-23T23:00:03;9.50;;;8.95;;
34184;SDS011;20454;48.100;11.776;2022-07-23T23:02:31;10.10;;;9.32;;
34184;SDS011;20454;48.100;11.776;2022-07-23T23:04:57;10.32;;;9.43;;
34184;SDS011;20454;48.100;11.776;2022-07-23T23:07:23;10.40;;;9.40;;
34184;SDS011;20454;48.100;11.776;2022-07-23T23:09:48;12.98;;;10.10;;
34184;SDS011;20454;48.100;11.776;2022-07-23T23:12:14;9.55;;;8.80;;
34184;SDS011;20454;48.100;11.776;2022-07-23T23:14:40;10.02;;;9.32;;
34184;SDS011;20454;48.100;11.776;2022-07-23T23:17:07;10.40;;;9.55;;
34184;SDS011;20454;48.100;11.776;2022-07-23T23:19:34;9.80;;;9.00;;
34184;SDS011;20454;48.100;11.776;2022-07-23T23:22:00;10.68;;;9.68;;
34184;SDS011;20454;48.100;11.776;2022-07-23T23:24:26;9.52;;;8.82;;
34184;SDS011;20454;48.100;11.776;2022-07-23T23:26:51;10.20;;;9.35;;
34184;SDS011;20454;48.100;11.776;2022-07-23T23:29:17;9.93;;;9.02;;
34184;SDS011;20454;48.100;11.776;2022-07-23T23:31:44;10.32;;;9.45;;
34184;SDS011;20454;48.100;11.776;2022-07-23T23:34:09;10.50;;;9.68;;
34184;SDS011;20454;48.100;11.776;2022-07-23T23:36:35;9.85;;;9.05;;
34184;SDS011;20454;48.100;11.776;2022-07-23T23:39:01;10.25;;;9.45;;
34184;SDS011;20454;48.100;11.776;2022-07-23T23:41:28;10.50;;;9.60;;
34184;SDS011;20454;48.100;11.776;2022-07-23T23:43:53;8.52;;;7.88;;
34184;SDS011;20454;48.100;11.776;2022-07-23T23:46:19;11.40;;;10.57;;
34184;SDS011;20454;48.100;11.776;2022-07-23T23:48:45;9.52;;;8.93;;
34184;SDS011;20454;48.100;11.776;2022-07-23T23:51:11;11.18;;;10.25;;
34184;SDS011;20454;48.100;11.776;2022-07-23T23:53:37;10.10;;;9.30;;
34184;SDS011;20454;48.100;11.776;2022-07-23T23:56:02;9.05;;;8.35;;
34184;SDS011;20454;48.100;11.776;2022-07-23T23:58:28;9.07;;;8.48;;
